createdAt,value
2023-04-17T00:02:20.932Z,7.11
2023-04-17T00:04:48.358Z,7.08
2023-04-17T00:07:14.721Z,7.07
2023-04-17T00:09:41.056Z,6.99
2023-04-17T00:12:07.470Z,6.87
2023-04-17T00:14:33.770Z,6.87
2023-04-17T00:17:00.098Z,6.88
2023-04-17T00:19:26.377Z,6.95
2023-04-17T00:21:52.647Z,6.89
2023-04-17T00:24:30.598Z,6.75
2023-04-17T00:26:57.208Z,6.71
2023-04-17T00:29:23.807Z,6.81
2023-04-17T00:31:50.248Z,6.68
2023-04-17T00:34:16.545Z,6.75
2023-04-17T00:36:42.814Z,6.62
2023-04-17T00:39:09.182Z,6.59
2023-04-17T00:41:35.648Z,6.58
2023-04-17T00:44:01.979Z,6.70
2023-04-17T00:46:28.274Z,6.67
2023-04-17T00:48:54.913Z,6.72
2023-04-17T00:51:21.408Z,6.72
2023-04-17T00:53:47.797Z,6.73
2023-04-17T00:56:14.465Z,6.66
2023-04-17T00:58:40.827Z,6.70
2023-04-17T01:01:07.240Z,6.72
2023-04-17T01:03:33.807Z,6.59
2023-04-17T01:06:00.285Z,6.66
2023-04-17T01:08:26.773Z,6.68
2023-04-17T01:10:53.105Z,6.67
2023-04-17T01:13:19.408Z,6.66
2023-04-17T01:15:46.778Z,6.69
2023-04-17T01:18:13.115Z,6.72
2023-04-17T01:20:39.530Z,6.69
2023-04-17T01:23:05.908Z,6.67
2023-04-17T01:25:32.286Z,6.67
2023-04-17T01:27:58.594Z,6.66
2023-04-17T01:30:24.923Z,6.66
2023-04-17T01:32:53.899Z,6.65
2023-04-17T01:35:20.384Z,6.69
2023-04-17T01:37:46.735Z,6.60
2023-04-17T01:40:13.173Z,6.55
2023-04-17T01:42:39.885Z,6.49
2023-04-17T01:45:06.731Z,6.39
2023-04-17T01:47:33.089Z,6.49
2023-04-17T01:49:59.390Z,6.48
2023-04-17T01:52:25.804Z,6.47
2023-04-17T01:54:52.069Z,6.48
2023-04-17T01:57:18.602Z,6.57
2023-04-17T01:59:44.922Z,6.53
2023-04-17T02:02:11.888Z,6.56
2023-04-17T02:04:38.340Z,6.55
2023-04-17T02:07:04.723Z,6.53
2023-04-17T02:09:31.042Z,6.55
2023-04-17T02:11:57.372Z,6.52
2023-04-17T02:14:24.735Z,6.46
2023-04-17T02:16:51.015Z,6.43
2023-04-17T02:19:17.290Z,6.27
2023-04-17T02:21:43.570Z,6.19
2023-04-17T02:24:10.146Z,6.17
2023-04-17T02:26:36.950Z,6.30
2023-04-17T02:29:03.298Z,6.21
2023-04-17T02:31:31.221Z,6.18
2023-04-17T02:33:57.591Z,6.07
2023-04-17T02:36:23.879Z,6.16
2023-04-17T02:38:50.196Z,6.21
2023-04-17T02:41:16.497Z,6.25
2023-04-17T02:43:42.814Z,6.28
2023-04-17T02:46:09.133Z,6.16
2023-04-17T02:48:35.555Z,6.08
2023-04-17T02:51:01.849Z,6.08
2023-04-17T02:53:28.180Z,6.07
2023-04-17T02:55:54.471Z,6.02
2023-04-17T02:58:20.856Z,6.06
2023-04-17T03:00:47.139Z,6.14
2023-04-17T03:03:13.631Z,6.13
2023-04-17T03:05:40.350Z,6.23
2023-04-17T03:08:06.715Z,6.23
2023-04-17T03:10:32.983Z,6.27
2023-04-17T03:12:59.256Z,6.18
2023-04-17T03:15:25.528Z,6.16
2023-04-17T03:17:51.883Z,6.12
2023-04-17T03:20:18.362Z,6.11
2023-04-17T03:22:44.743Z,6.13
2023-04-17T03:25:11.137Z,6.10
2023-04-17T03:27:38.540Z,6.00
2023-04-17T03:30:05.701Z,5.90
2023-04-17T03:32:32.692Z,5.88
2023-04-17T03:34:59.017Z,5.66
2023-04-17T03:37:25.317Z,5.66
2023-04-17T03:39:51.603Z,5.70
2023-04-17T03:42:18.014Z,5.74
2023-04-17T03:44:44.320Z,5.74
2023-04-17T03:47:11.056Z,5.63
2023-04-17T03:49:37.324Z,5.55
2023-04-17T03:52:03.897Z,5.55
2023-04-17T03:54:35.034Z,5.60
2023-04-17T03:57:02.765Z,5.62
2023-04-17T03:59:31.241Z,5.66
2023-04-17T04:01:57.759Z,5.62
2023-04-17T04:04:24.793Z,5.60
2023-04-17T04:06:54.240Z,5.62
2023-04-17T04:09:21.156Z,5.59
2023-04-17T04:11:47.524Z,5.59
2023-04-17T04:14:14.026Z,5.56
2023-04-17T04:16:40.300Z,5.65
2023-04-17T04:19:06.617Z,5.57
2023-04-17T04:21:32.955Z,5.60
2023-04-17T04:23:59.326Z,5.67
2023-04-17T04:26:27.072Z,5.74
2023-04-17T04:28:53.613Z,5.73
2023-04-17T04:31:20.316Z,5.72
2023-04-17T04:33:46.704Z,5.63
2023-04-17T04:36:14.006Z,5.63
2023-04-17T04:38:40.333Z,5.68
2023-04-17T04:41:10.044Z,5.59
2023-04-17T04:43:36.897Z,5.61
2023-04-17T04:46:03.837Z,5.67
2023-04-17T04:48:30.121Z,5.71
2023-04-17T04:50:56.508Z,5.64
2023-04-17T04:53:22.938Z,5.62
2023-04-17T04:55:49.235Z,5.66
2023-04-17T04:58:16.096Z,5.70
2023-04-17T05:00:43.443Z,5.69
2023-04-17T05:03:10.015Z,5.73
2023-04-17T05:05:37.579Z,5.77
2023-04-17T05:08:04.070Z,5.83
2023-04-17T05:10:30.391Z,5.93
2023-04-17T05:12:56.737Z,5.98
2023-04-17T05:15:24.071Z,5.97
2023-04-17T05:17:50.531Z,5.94
2023-04-17T05:20:16.889Z,5.98
2023-04-17T05:22:43.204Z,6.01
2023-04-17T05:25:09.538Z,6.05
2023-04-17T05:27:35.873Z,6.15
2023-04-17T05:30:02.202Z,6.19
2023-04-17T05:32:30.931Z,6.24
2023-04-17T05:34:57.426Z,6.33
2023-04-17T05:37:23.781Z,6.42
2023-04-17T05:39:50.210Z,6.51
2023-04-17T05:42:16.710Z,6.54
2023-04-17T05:44:43.086Z,6.57
2023-04-17T05:47:09.404Z,6.63
2023-04-17T05:49:36.072Z,6.68
2023-04-17T05:52:02.408Z,6.73
2023-04-17T05:54:30.130Z,6.88
2023-04-17T05:56:56.693Z,6.89
2023-04-17T05:59:23.066Z,6.87
2023-04-17T06:01:49.448Z,6.98
2023-04-17T06:04:17.347Z,7.19
2023-04-17T06:06:44.638Z,7.18
2023-04-17T06:09:11.873Z,7.17
2023-04-17T06:11:38.441Z,7.18
2023-04-17T06:14:04.752Z,7.27
2023-04-17T06:16:31.341Z,7.35
2023-04-17T06:18:57.687Z,7.49
2023-04-17T06:21:24.042Z,7.57
2023-04-17T06:23:50.377Z,7.63
2023-04-17T06:26:16.677Z,7.41
2023-04-17T06:28:43.217Z,7.48
2023-04-17T06:31:09.591Z,7.61
2023-04-17T06:33:36.041Z,7.70
2023-04-17T06:36:02.691Z,7.80
2023-04-17T06:38:28.977Z,7.96
2023-04-17T06:40:55.332Z,7.91
2023-04-17T06:43:21.633Z,7.95
2023-04-17T06:45:48.345Z,7.71
2023-04-17T06:48:14.680Z,7.85
2023-04-17T06:50:41.093Z,8.04
2023-04-17T06:53:07.432Z,8.09
2023-04-17T06:55:33.822Z,8.17
2023-04-17T06:58:00.285Z,8.34
2023-04-17T07:00:26.736Z,8.23
2023-04-17T07:02:53.263Z,8.10
2023-04-17T07:05:19.667Z,8.43
2023-04-17T07:07:45.959Z,8.52
2023-04-17T07:10:12.333Z,8.67
2023-04-17T07:12:38.669Z,8.73
2023-04-17T07:15:05.380Z,8.87
2023-04-17T07:17:31.863Z,8.92
2023-04-17T07:19:58.233Z,9.10
2023-04-17T07:22:25.994Z,9.00
2023-04-17T07:24:53.614Z,9.13
2023-04-17T07:27:20.139Z,9.45
2023-04-17T07:29:52.688Z,9.59
2023-04-17T07:32:19.189Z,9.43
2023-04-17T07:34:45.911Z,9.34
2023-04-17T07:37:12.189Z,9.63
2023-04-17T07:39:38.670Z,9.61
2023-04-17T07:42:07.209Z,9.43
2023-04-17T07:44:33.544Z,9.44
2023-04-17T07:46:59.961Z,9.40
2023-04-17T07:49:26.596Z,9.68
2023-04-17T07:51:54.078Z,9.73
2023-04-17T07:54:20.380Z,9.55
2023-04-17T07:56:46.764Z,9.83
2023-04-17T07:59:13.610Z,10.09
2023-04-17T08:01:40.967Z,10.21
2023-04-17T08:04:07.738Z,10.39
2023-04-17T08:06:34.402Z,10.48
2023-04-17T08:09:02.138Z,10.44
2023-04-17T08:11:28.987Z,10.75
2023-04-17T08:13:55.767Z,11.09
2023-04-17T08:16:22.159Z,11.10
2023-04-17T08:18:48.571Z,11.24
2023-04-17T08:21:14.906Z,11.38
2023-04-17T08:23:41.810Z,10.58
2023-04-17T08:26:08.098Z,10.67
2023-04-17T08:28:34.366Z,11.20
2023-04-17T08:31:00.871Z,11.48
2023-04-17T08:33:27.736Z,11.70
2023-04-17T08:35:54.082Z,11.56
2023-04-17T08:38:20.468Z,11.54
2023-04-17T08:40:51.680Z,11.72
2023-04-17T08:43:19.876Z,11.86
2023-04-17T08:45:53.927Z,12.00
2023-04-17T08:48:22.307Z,11.84
2023-04-17T08:50:50.883Z,12.06
2023-04-17T08:53:18.226Z,12.22
2023-04-17T08:55:45.792Z,12.29
2023-04-17T08:58:13.204Z,12.25
2023-04-17T09:00:41.198Z,12.13
2023-04-17T09:03:11.095Z,12.26
2023-04-17T09:05:41.613Z,12.10
2023-04-17T09:08:21.050Z,12.10
2023-04-17T09:10:52.163Z,11.80
2023-04-17T09:13:21.385Z,12.31
2023-04-17T09:16:04.060Z,12.47
2023-04-17T09:18:31.492Z,12.46
2023-04-17T09:20:59.711Z,12.49
2023-04-17T09:23:27.751Z,12.66
2023-04-17T09:26:08.449Z,12.54
2023-04-17T09:28:35.484Z,12.25
2023-04-17T09:31:17.242Z,11.71
2023-04-17T09:34:07.505Z,11.48
2023-04-17T09:36:36.788Z,11.49
2023-04-17T09:39:05.577Z,11.53
2023-04-17T09:41:39.089Z,11.50
2023-04-17T09:44:06.234Z,11.82
2023-04-17T09:46:42.617Z,12.07
2023-04-17T09:49:14.372Z,12.28
2023-04-17T09:51:41.521Z,11.83
2023-04-17T09:54:12.257Z,12.00
2023-04-17T09:56:39.836Z,11.92
2023-04-17T09:59:07.269Z,11.98
2023-04-17T10:01:35.422Z,11.96
2023-04-17T10:04:03.311Z,11.74
2023-04-17T10:06:33.958Z,12.02
2023-04-17T10:09:00.750Z,11.96
2023-04-17T10:11:35.934Z,12.11
2023-04-17T10:14:15.501Z,12.11
2023-04-17T10:16:45.041Z,11.85
2023-04-17T10:19:31.354Z,12.04
2023-04-17T10:22:17.908Z,12.29
2023-04-17T10:24:51.643Z,12.01
2023-04-17T10:27:31.033Z,12.08
2023-04-17T10:29:59.589Z,12.07
2023-04-17T10:32:30.312Z,11.84
2023-04-17T10:34:58.593Z,12.23
2023-04-17T10:37:46.984Z,12.41
2023-04-17T10:40:20.625Z,12.43
2023-04-17T10:43:23.100Z,12.40
2023-04-17T10:46:10.029Z,12.60
2023-04-17T10:48:39.172Z,12.17
2023-04-17T10:51:24.486Z,12.41
2023-04-17T10:53:55.255Z,12.65
2023-04-17T10:56:41.316Z,12.59
2023-04-17T10:59:18.896Z,12.48
2023-04-17T11:01:48.053Z,12.74
2023-04-17T11:04:22.931Z,12.47
2023-04-17T11:06:52.501Z,12.64
2023-04-17T11:09:20.711Z,12.75
2023-04-17T11:11:47.086Z,12.67
2023-04-17T11:14:18.221Z,12.66
2023-04-17T11:16:47.899Z,12.69
2023-04-17T11:19:21.203Z,12.70
2023-04-17T11:21:49.315Z,12.30
2023-04-17T11:24:32.183Z,12.23
2023-04-17T11:27:00.837Z,12.11
2023-04-17T11:29:27.852Z,12.27
2023-04-17T11:31:56.120Z,12.42
2023-04-17T11:34:22.832Z,12.35
2023-04-17T11:36:54.421Z,12.58
2023-04-17T11:39:23.440Z,12.61
2023-04-17T11:41:51.564Z,12.48
2023-04-17T11:44:20.469Z,12.62
2023-04-17T11:46:54.070Z,12.64
2023-04-17T11:49:26.169Z,12.65
2023-04-17T11:51:53.279Z,12.61
2023-04-17T11:54:31.117Z,12.25
2023-04-17T11:57:02.052Z,12.52
2023-04-17T11:59:32.434Z,12.31
2023-04-17T12:02:02.037Z,12.05
2023-04-17T12:04:35.444Z,12.19
2023-04-17T12:07:03.706Z,12.13
2023-04-17T12:09:33.704Z,12.09
2023-04-17T12:12:03.426Z,12.46
2023-04-17T12:14:29.925Z,12.30
2023-04-17T12:16:56.259Z,12.49
2023-04-17T12:19:22.720Z,11.95
2023-04-17T12:21:49.048Z,12.10
2023-04-17T12:24:45.602Z,12.20
2023-04-17T12:27:11.917Z,12.14
2023-04-17T12:32:10.785Z,11.81
2023-04-17T12:34:37.530Z,11.67
2023-04-17T12:37:03.802Z,12.02
2023-04-17T12:39:30.077Z,11.81
2023-04-17T12:41:56.396Z,12.13
2023-04-17T12:44:22.684Z,12.14
2023-04-17T12:46:48.991Z,12.08
2023-04-17T12:49:15.649Z,12.17
2023-04-17T12:51:41.970Z,12.10
2023-04-17T12:54:08.300Z,12.01
2023-04-17T12:56:34.750Z,12.07
2023-04-17T12:59:03.079Z,11.82
2023-04-17T13:01:30.095Z,11.67
2023-04-17T13:03:57.188Z,11.91
2023-04-17T13:06:23.937Z,11.89
2023-04-17T13:08:50.267Z,11.80
2023-04-17T13:11:16.654Z,11.48
2023-04-17T13:13:42.945Z,11.73
2023-04-17T13:16:10.239Z,11.63
2023-04-17T13:18:37.417Z,11.51
2023-04-17T13:21:03.785Z,11.33
2023-04-17T13:23:30.250Z,11.54
2023-04-17T13:25:56.591Z,11.50
2023-04-17T13:28:22.925Z,11.59
2023-04-17T13:30:49.272Z,11.61
2023-04-17T13:33:15.842Z,11.40
2023-04-17T13:35:42.238Z,11.39
2023-04-17T13:38:08.591Z,11.24
2023-04-17T13:40:36.160Z,11.06
2023-04-17T13:43:02.467Z,11.32
2023-04-17T13:45:28.779Z,11.26
2023-04-17T13:47:55.302Z,11.56
2023-04-17T13:50:21.642Z,11.40
2023-04-17T13:52:48.049Z,11.52
2023-04-17T13:55:15.932Z,11.36
2023-04-17T13:57:42.270Z,11.46
2023-04-17T14:00:10.567Z,11.33
2023-04-17T14:02:36.995Z,11.44
2023-04-17T14:05:04.001Z,11.66
2023-04-17T14:07:30.504Z,11.54
2023-04-17T14:09:56.935Z,11.53
2023-04-17T14:12:23.454Z,11.54
2023-04-17T14:14:49.842Z,11.57
2023-04-17T14:17:16.163Z,11.84
2023-04-17T14:19:42.450Z,11.89
2023-04-17T14:22:08.800Z,11.64
2023-04-17T14:24:35.086Z,11.62
2023-04-17T14:27:02.039Z,11.69
2023-04-17T14:29:28.426Z,11.50
2023-04-17T14:31:55.103Z,11.60
2023-04-17T14:34:21.606Z,11.38
2023-04-17T14:36:48.567Z,11.60
2023-04-17T14:39:15.024Z,11.30
2023-04-17T14:41:41.586Z,11.40
2023-04-17T14:44:08.055Z,11.48
2023-04-17T14:46:34.420Z,11.56
2023-04-17T14:49:00.812Z,11.55
2023-04-17T14:51:27.406Z,11.28
2023-04-17T14:53:54.431Z,11.25
2023-04-17T14:56:23.869Z,11.10
2023-04-17T14:58:50.240Z,11.29
2023-04-17T15:01:17.330Z,11.09
2023-04-17T15:03:47.294Z,11.17
2023-04-17T15:06:15.357Z,11.20
2023-04-17T15:08:41.777Z,10.91
2023-04-17T15:11:08.624Z,10.75
2023-04-17T15:13:35.655Z,10.74
2023-04-17T15:16:02.318Z,10.86
2023-04-17T15:18:28.770Z,10.83
2023-04-17T15:20:55.169Z,10.94
2023-04-17T15:23:22.650Z,10.92
2023-04-17T15:25:49.034Z,10.86
2023-04-17T15:28:15.727Z,10.91
2023-04-17T15:30:42.012Z,11.00
2023-04-17T15:33:10.091Z,10.82
2023-04-17T15:35:36.884Z,10.35
2023-04-17T15:38:03.273Z,10.43
2023-04-17T15:40:29.663Z,10.33
2023-04-17T15:42:55.949Z,10.19
2023-04-17T15:45:22.335Z,10.25
2023-04-17T15:47:48.736Z,10.22
2023-04-17T15:50:18.173Z,10.19
2023-04-17T15:52:44.666Z,10.19
2023-04-17T15:55:11.076Z,10.24
2023-04-17T15:57:37.898Z,10.19
2023-04-17T16:00:04.634Z,9.95
2023-04-17T16:02:31.062Z,9.96
2023-04-17T16:04:57.621Z,10.00
2023-04-17T16:07:24.175Z,9.91
2023-04-17T16:09:50.811Z,9.77
2023-04-17T16:12:17.175Z,9.70
2023-04-17T16:14:43.480Z,9.77
2023-04-17T16:17:09.772Z,9.79
2023-04-17T16:19:36.148Z,9.59
2023-04-17T16:22:02.941Z,9.63
2023-04-17T16:25:13.237Z,9.57
2023-04-17T16:27:40.940Z,9.37
2023-04-17T16:30:09.045Z,9.38
2023-04-17T16:32:35.732Z,9.42
2023-04-17T16:35:02.116Z,9.47
2023-04-17T16:37:28.466Z,9.42
2023-04-17T16:39:54.823Z,9.45
2023-04-17T16:42:21.218Z,9.31
2023-04-17T16:44:47.904Z,9.29
2023-04-17T16:47:14.750Z,9.22
2023-04-17T16:49:42.055Z,9.27
2023-04-17T16:52:08.486Z,9.29
2023-04-17T16:54:34.842Z,9.22
2023-04-17T16:57:01.270Z,9.26
2023-04-17T16:59:27.597Z,9.21
2023-04-17T17:01:53.979Z,9.07
2023-04-17T17:04:20.445Z,8.97
2023-04-17T17:06:46.758Z,8.79
2023-04-17T17:09:13.198Z,8.72
2023-04-17T17:11:39.787Z,8.69
2023-04-17T17:14:06.410Z,8.67
2023-04-17T17:16:32.786Z,8.58
2023-04-17T17:19:00.135Z,8.44
2023-04-17T17:21:26.530Z,8.35
2023-04-17T17:23:52.844Z,8.36
2023-04-17T17:26:19.370Z,8.33
2023-04-17T17:28:50.798Z,8.20
2023-04-17T17:31:17.516Z,8.19
2023-04-17T17:33:44.834Z,8.20
2023-04-17T17:36:11.879Z,8.14
2023-04-17T17:38:39.035Z,8.12
2023-04-17T17:41:05.682Z,8.03
2023-04-17T17:43:32.032Z,7.88
2023-04-17T17:45:58.428Z,7.87
2023-04-17T17:48:24.895Z,7.81
2023-04-17T17:50:54.895Z,7.71
2023-04-17T17:53:25.987Z,7.70
2023-04-17T17:55:54.554Z,7.67
2023-04-17T17:58:21.752Z,7.61
2023-04-17T18:00:49.211Z,7.56
2023-04-17T18:03:16.567Z,7.52
2023-04-17T18:05:44.165Z,7.54
2023-04-17T18:08:10.474Z,7.47
2023-04-17T18:10:36.764Z,7.40
2023-04-17T18:13:03.210Z,7.39
2023-04-17T18:15:29.512Z,7.33
2023-04-17T18:17:56.045Z,7.21
2023-04-17T18:20:22.419Z,7.16
2023-04-17T18:22:48.852Z,7.05
2023-04-17T18:25:15.259Z,6.91
2023-04-17T18:27:41.593Z,6.83
2023-04-17T18:30:08.815Z,6.86
2023-04-17T18:32:35.876Z,6.87
2023-04-17T18:35:02.773Z,6.71
2023-04-17T18:37:29.256Z,6.68
2023-04-17T18:39:55.689Z,6.60
2023-04-17T18:42:22.081Z,6.60
2023-04-17T18:44:48.432Z,6.61
2023-04-17T18:47:14.761Z,6.47
2023-04-17T18:49:41.102Z,6.31
2023-04-17T18:52:07.518Z,6.28
2023-04-17T18:54:34.803Z,6.19
2023-04-17T18:57:01.732Z,6.12
2023-04-17T18:59:28.101Z,6.09
2023-04-17T19:01:54.496Z,6.06
2023-04-17T19:04:21.627Z,5.93
2023-04-17T19:06:47.969Z,5.87
2023-04-17T19:09:14.285Z,5.88
2023-04-17T19:11:40.935Z,5.77
2023-04-17T19:14:07.215Z,5.74
2023-04-17T19:16:33.544Z,5.69
2023-04-17T19:18:59.950Z,5.73
2023-04-17T19:21:28.150Z,5.72
2023-04-17T19:23:54.526Z,5.67
2023-04-17T19:26:20.954Z,5.63
2023-04-17T19:28:47.331Z,5.55
2023-04-17T19:31:13.604Z,5.56
2023-04-17T19:33:39.917Z,5.52
2023-04-17T19:36:06.403Z,5.57
2023-04-17T19:38:32.701Z,5.60
2023-04-17T19:41:14.754Z,5.59
2023-04-17T19:43:42.404Z,5.65
2023-04-17T19:46:09.260Z,5.71
2023-04-17T19:48:36.327Z,5.80
2023-04-17T19:51:06.683Z,5.88
2023-04-17T19:53:35.354Z,5.92
2023-04-17T19:56:02.954Z,5.92
2023-04-17T19:58:29.958Z,5.91
2023-04-17T20:00:57.802Z,5.91
2023-04-17T20:03:26.202Z,5.97
2023-04-17T20:05:53.121Z,6.04
2023-04-17T20:08:19.539Z,6.02
2023-04-17T20:10:45.845Z,5.94
2023-04-17T20:13:12.891Z,5.97
2023-04-17T20:15:40.311Z,5.92
2023-04-17T20:18:09.044Z,5.91
2023-04-17T20:20:36.734Z,5.87
2023-04-17T20:23:03.212Z,5.87
2023-04-17T20:25:29.739Z,5.79
2023-04-17T20:27:56.357Z,5.84
2023-04-17T20:30:23.895Z,5.88
2023-04-17T20:32:50.586Z,5.88
2023-04-17T20:35:17.852Z,5.93
2023-04-17T20:37:44.747Z,5.91
2023-04-17T20:40:13.827Z,5.90
2023-04-17T20:42:41.996Z,5.87
2023-04-17T20:45:09.744Z,5.91
2023-04-17T20:47:37.559Z,5.98
2023-04-17T20:50:05.587Z,6.03
2023-04-17T20:52:33.128Z,5.97
2023-04-17T20:55:00.840Z,6.01
2023-04-17T20:57:28.293Z,6.03
2023-04-17T20:59:54.660Z,6.00
2023-04-17T21:02:21.726Z,6.06
2023-04-17T21:04:48.974Z,6.05
2023-04-17T21:07:16.050Z,6.04
2023-04-17T21:09:42.442Z,6.03
2023-04-17T21:12:08.877Z,6.00
2023-04-17T21:14:36.143Z,6.01
2023-04-17T21:17:02.587Z,6.04
2023-04-17T21:19:28.973Z,6.07
2023-04-17T21:21:55.364Z,6.02
2023-04-17T21:24:21.826Z,6.08
2023-04-17T21:26:48.150Z,6.06
2023-04-17T21:29:17.330Z,6.00
2023-04-17T21:31:43.939Z,6.04
2023-04-17T21:34:10.465Z,6.00
2023-04-17T21:36:36.850Z,6.00
2023-04-17T21:39:03.178Z,5.94
2023-04-17T21:41:31.674Z,5.99
2023-04-17T21:44:02.435Z,5.97
2023-04-17T21:46:29.210Z,5.98
2023-04-17T21:48:55.895Z,5.88
2023-04-17T21:51:22.898Z,5.87
2023-04-17T21:53:49.412Z,5.80
2023-04-17T21:56:15.757Z,5.80
2023-04-17T21:58:42.045Z,5.74
2023-04-17T22:01:08.360Z,5.72
2023-04-17T22:03:35.107Z,5.59
2023-04-17T22:06:01.423Z,5.69
2023-04-17T22:08:27.690Z,5.61
2023-04-17T22:10:53.980Z,5.53
2023-04-17T22:13:20.557Z,5.52
2023-04-17T22:15:47.975Z,5.44
2023-04-17T22:18:14.251Z,5.46
2023-04-17T22:20:40.599Z,5.42
2023-04-17T22:23:07.107Z,5.42
2023-04-17T22:25:33.444Z,5.51
2023-04-17T22:27:59.766Z,5.51
2023-04-17T22:30:26.032Z,5.42
2023-04-17T22:32:52.330Z,5.38
2023-04-17T22:35:18.668Z,5.34
2023-04-17T22:37:44.959Z,5.46
2023-04-17T22:40:12.000Z,5.52
2023-04-17T22:42:38.271Z,5.38
2023-04-17T22:45:05.801Z,5.35
2023-04-17T22:47:32.130Z,5.46
2023-04-17T22:49:59.050Z,5.47
2023-04-17T22:52:25.560Z,5.51
2023-04-17T22:54:51.874Z,5.49
2023-04-17T22:57:18.173Z,5.45
2023-04-17T22:59:44.457Z,5.53
2023-04-17T23:02:10.840Z,5.49
2023-04-17T23:04:37.347Z,5.45
2023-04-17T23:07:03.778Z,5.46
2023-04-17T23:09:30.094Z,5.56
2023-04-17T23:11:56.428Z,5.55
2023-04-17T23:14:22.827Z,5.47
2023-04-17T23:16:49.178Z,5.43
2023-04-17T23:19:15.577Z,5.37
2023-04-17T23:21:41.909Z,5.32
2023-04-17T23:24:08.368Z,5.22
2023-04-17T23:26:34.649Z,5.13
2023-04-17T23:29:01.059Z,5.06
2023-04-17T23:31:27.421Z,5.12
2023-04-17T23:33:53.759Z,5.04
2023-04-17T23:36:20.598Z,5.05
2023-04-17T23:38:46.926Z,5.00
2023-04-17T23:41:13.220Z,4.96
2023-04-17T23:43:39.510Z,4.89
2023-04-17T23:46:06.133Z,4.92
2023-04-17T23:48:32.387Z,4.97
2023-04-17T23:50:58.714Z,4.98
2023-04-17T23:53:24.986Z,4.93
2023-04-17T23:55:51.678Z,4.98
2023-04-17T23:58:17.976Z,4.95
